Time;durP1;ratioP1;P1;durP2;ratioP2;P2;SDS_P1;SDS_P2;PMS_P1;PMS_P2;Temp;Humidity;BMP_temperature;BMP_pressure;BME280_temperature;BME280_humidity;BME280_pressure;Samples;Min_cycle;Max_cycle;Signal;HPM_P1;HPM_P2
2022/02/22 00:02:01;;;;;;;4.55;2.20;;;;;;;5.09;67.86;96489.30;1719448;82;21021;-79
2022/02/22 00:04:33;;;;;;;3.27;2.10;;;;;;;5.09;67.69;96491.92;1719471;82;21007;-79
2022/02/22 00:06:55;;;;;;;3.27;1.92;;;;;;;5.07;68.37;96484.09;1718980;83;21420;-79
2022/02/22 00:09:22;;;;;;;3.40;2.05;;;;;;;5.08;68.38;96487.14;1718683;83;21033;-79
2022/02/22 00:11:49;;;;;;;4.17;2.40;;;;;;;5.07;68.27;96488.03;1719323;83;21407;-79
2022/02/22 00:14:15;;;;;;;5.42;2.90;;;;;;;5.07;68.55;96488.03;1719389;83;21012;-79
2022/02/22 00:16:41;;;;;;;5.00;2.65;;;;;;;5.06;68.65;96489.41;1719611;83;21053;-79
2022/02/22 00:19:08;;;;;;;5.80;2.60;;;;;;;5.04;69.04;96490.77;1718939;82;21001;-80
2022/02/22 00:21:34;;;;;;;4.83;2.40;;;;;;;5.00;69.97;96491.33;1719109;83;21002;-80
2022/02/22 00:24:01;;;;;;;4.75;2.60;;;;;;;4.96;69.81;96483.58;1718852;83;21021;-80
2022/02/22 00:26:27;;;;;;;4.97;2.67;;;;;;;4.90;70.83;96488.56;1719364;83;21052;-80
2022/02/22 00:28:54;;;;;;;4.87;2.20;;;;;;;4.88;70.05;96487.33;1719198;83;21048;-80
2022/02/22 00:31:22;;;;;;;4.58;2.47;;;;;;;4.86;70.98;96494.37;1719309;82;20977;-80
2022/02/22 00:33:48;;;;;;;4.30;2.60;;;;;;;4.85;70.88;96496.59;1719481;83;21057;-80
2022/02/22 00:36:15;;;;;;;4.58;2.40;;;;;;;4.83;70.87;96495.80;1719573;82;21020;-80
2022/02/22 00:38:42;;;;;;;5.05;2.65;;;;;;;4.83;70.84;96503.67;1727795;82;21057;-80
2022/02/22 00:41:09;;;;;;;5.08;2.62;;;;;;;4.80;71.70;96499.81;1696265;82;20947;-80
2022/02/22 00:43:35;;;;;;;5.62;3.15;;;;;;;4.79;71.35;96499.41;1689266;84;21058;-79
2022/02/22 00:46:02;;;;;;;4.92;3.15;;;;;;;4.78;71.37;96502.95;1712826;83;21441;-80
2022/02/22 00:48:28;;;;;;;5.67;3.25;;;;;;;4.73;71.23;96493.89;1719263;83;21021;-80
2022/02/22 00:50:55;;;;;;;5.42;2.75;;;;;;;4.74;71.59;96498.70;1719399;82;21399;-80
2022/02/22 00:53:22;;;;;;;4.90;2.85;;;;;;;4.71;72.05;96501.41;1719561;83;21002;-79
2022/02/22 00:55:48;;;;;;;5.15;2.50;;;;;;;4.68;71.40;96506.73;1719340;82;20981;-80
2022/02/22 00:58:15;;;;;;;5.03;3.20;;;;;;;4.65;71.40;96498.97;1719240;83;21017;-79
2022/02/22 01:00:41;;;;;;;4.67;2.40;;;;;;;4.60;71.59;96503.91;1719287;83;22112;-80
2022/02/22 01:03:08;;;;;;;7.40;2.77;;;;;;;4.57;71.59;96501.36;1719257;83;20985;-79
2022/02/22 01:05:34;;;;;;;6.72;3.20;;;;;;;4.60;71.08;96497.34;1719370;82;21485;-79
2022/02/22 01:08:02;;;;;;;5.12;2.98;;;;;;;4.61;71.04;96502.15;1724804;82;21012;-80
2022/02/22 01:10:30;;;;;;;5.67;3.33;;;;;;;4.63;71.26;96505.58;1732292;82;21052;-79
2022/02/22 01:12:58;;;;;;;6.15;3.00;;;;;;;4.64;71.44;96507.75;1732346;82;21156;-80
2022/02/22 01:15:25;;;;;;;4.97;3.00;;;;;;;4.63;71.15;96506.88;1732361;82;21012;-79
2022/02/22 01:17:52;;;;;;;6.15;3.22;;;;;;;4.62;71.74;96503.39;1732190;82;21021;-80
2022/02/22 01:20:18;;;;;;;8.20;3.52;;;;;;;4.64;71.00;96502.52;1732180;83;21020;-80
2022/02/22 01:22:46;;;;;;;5.67;2.95;;;;;;;4.61;70.87;96500.36;1732297;83;21051;-80
2022/02/22 01:25:13;;;;;;;5.58;3.30;;;;;;;4.65;70.97;96504.22;1732259;83;21009;-80
2022/02/22 01:27:40;;;;;;;6.00;3.37;;;;;;;4.66;70.84;96496.75;1732304;83;21095;-79
2022/02/22 01:30:08;;;;;;;4.28;2.80;;;;;;;4.65;70.98;96503.75;1732355;83;20996;-80
2022/02/22 01:32:34;;;;;;;6.17;3.35;;;;;;;4.66;71.05;96503.31;1732314;82;21450;-79
2022/02/22 01:35:01;;;;;;;7.17;3.10;;;;;;;4.67;71.75;96507.64;1725766;81;20948;-85
2022/02/22 01:37:27;;;;;;;6.72;3.05;;;;;;;4.69;71.23;96504.55;1723497;83;20976;-84
2022/02/22 01:39:54;;;;;;;5.42;2.85;;;;;;;4.71;71.40;96494.84;1696950;84;20987;-84
2022/02/22 01:42:20;;;;;;;8.35;3.27;;;;;;;4.73;71.34;96510.08;1683840;85;21001;-86
2022/02/22 01:44:49;;;;;;;6.25;3.25;;;;;;;4.79;71.60;96509.05;1678247;85;21433;-78
2022/02/22 01:47:18;;;;;;;4.87;2.87;;;;;;;4.83;71.63;96517.23;1686702;84;21048;-78
2022/02/22 01:49:48;;;;;;;5.37;2.95;;;;;;;4.88;71.88;96516.20;1686324;85;21016;-78
2022/02/22 01:52:16;;;;;;;4.58;2.85;;;;;;;4.96;72.19;96519.02;1681468;85;21025;-77
2022/02/22 01:54:43;;;;;;;6.33;2.92;;;;;;;5.01;72.20;96522.37;1647775;87;21477;-77
2022/02/22 01:57:10;;;;;;;7.53;3.00;;;;;;;4.94;71.31;96527.42;1647827;87;21398;-77
2022/02/22 01:59:37;;;;;;;5.80;3.10;;;;;;;4.83;71.56;96529.05;1647439;87;21035;-77
2022/02/22 02:02:04;;;;;;;5.92;2.90;;;;;;;4.83;72.49;96525.11;1647175;87;21145;-77
2022/02/22 02:04:30;;;;;;;6.60;3.15;;;;;;;4.79;72.42;96522.16;1647737;87;20984;-77
2022/02/22 02:06:59;;;;;;;5.85;3.37;;;;;;;4.80;72.80;96520.81;1647584;87;21039;-77
2022/02/22 02:09:26;;;;;;;6.00;3.00;;;;;;;4.72;73.11;96529.36;1638634;86;21075;-77
2022/02/22 02:11:58;;;;;;;7.00;3.80;;;;;;;4.72;72.69;96526.73;1637873;88;20984;-77
2022/02/22 02:14:26;;;;;;;6.42;3.27;;;;;;;4.74;72.66;96531.50;1637917;88;21046;-77
2022/02/22 02:16:54;;;;;;;6.58;3.42;;;;;;;4.71;73.40;96535.08;1637924;88;21032;-77
2022/02/22 02:19:21;;;;;;;6.15;3.65;;;;;;;4.73;72.83;96541.13;1637628;88;21088;-77
2022/02/22 02:21:50;;;;;;;5.95;3.45;;;;;;;4.69;73.71;96534.25;1641134;85;20970;-77
2022/02/22 02:24:23;;;;;;;5.40;3.10;;;;;;;4.62;74.03;96541.44;1648194;87;21057;-77
2022/02/22 02:26:52;;;;;;;6.80;3.33;;;;;;;4.53;74.40;96531.20;1648048;87;21089;-77
2022/02/22 02:29:22;;;;;;;6.67;3.47;;;;;;;4.45;73.55;96525.34;1666151;85;21003;-77
2022/02/22 02:31:53;;;;;;;4.83;3.22;;;;;;;4.44;73.93;96531.50;1684644;85;21032;-77
2022/02/22 02:34:24;;;;;;;6.45;3.52;;;;;;;4.43;73.23;96534.56;1684668;85;21032;-77
2022/02/22 02:36:51;;;;;;;7.45;3.40;;;;;;;4.42;73.48;96533.30;1684823;85;20980;-77
2022/02/22 02:39:18;;;;;;;6.20;3.40;;;;;;;4.40;73.52;96528.55;1684747;85;21548;-77
2022/02/22 02:41:47;;;;;;;8.28;3.55;;;;;;;4.35;73.24;96530.84;1684591;85;21067;-77
2022/02/22 02:44:20;;;;;;;6.33;3.67;;;;;;;4.34;73.71;96530.89;1684913;85;20953;-77
2022/02/22 02:46:46;;;;;;;6.72;3.90;;;;;;;4.32;74.00;96533.55;1719538;83;20989;-77
2022/02/22 02:49:15;;;;;;;7.17;3.85;;;;;;;4.29;73.72;96532.34;1719403;82;21012;-78
2022/02/22 02:51:43;;;;;;;7.05;3.58;;;;;;;4.26;73.99;96543.34;1719291;83;20989;-77
2022/02/22 02:54:11;;;;;;;7.08;3.20;;;;;;;4.19;76.83;96553.17;1719408;83;21028;-79
2022/02/22 02:56:39;;;;;;;6.60;3.27;;;;;;;4.16;75.52;96554.55;1709881;82;21003;-79
2022/02/22 02:59:09;;;;;;;5.97;3.52;;;;;;;4.11;76.91;96560.38;1748482;82;21436;-78
2022/02/22 03:01:38;;;;;;;8.00;4.10;;;;;;;4.06;76.07;96565.73;1748469;82;21015;-78
2022/02/22 03:04:05;;;;;;;6.65;3.75;;;;;;;4.04;75.48;96565.80;1748778;82;21013;-78
2022/02/22 03:06:32;;;;;;;7.72;3.75;;;;;;;4.00;77.85;96569.83;1748309;82;21069;-78
2022/02/22 03:08:58;;;;;;;6.62;3.67;;;;;;;3.99;75.99;96575.98;1748886;82;21018;-78
2022/02/22 03:11:25;;;;;;;7.45;3.70;;;;;;;3.98;77.71;96582.97;1717812;82;21311;-79
2022/02/22 03:13:52;;;;;;;7.22;3.45;;;;;;;3.98;75.75;96576.89;1683250;85;21457;-79
2022/02/22 03:16:18;;;;;;;6.25;3.15;;;;;;;3.98;75.68;96586.91;1719307;83;21012;-79
2022/02/22 03:18:45;;;;;;;7.08;3.90;;;;;;;3.99;75.24;96583.41;1684794;85;21549;-79
2022/02/22 03:21:12;;;;;;;7.75;3.50;;;;;;;4.02;75.50;96585.09;1719223;83;21036;-79
2022/02/22 03:23:38;;;;;;;6.03;3.22;;;;;;;4.02;75.55;96585.92;1684296;85;20933;-79
2022/02/22 03:26:05;;;;;;;7.33;3.52;;;;;;;4.03;75.22;96594.20;1684900;85;21040;-78
2022/02/22 03:28:32;;;;;;;8.33;4.08;;;;;;;4.03;75.39;96592.88;1684857;85;21091;-77
2022/02/22 03:31:01;;;;;;;7.53;3.77;;;;;;;4.03;76.00;96596.82;1684614;85;21455;-77
2022/02/22 03:33:27;;;;;;;9.18;4.47;;;;;;;4.01;75.72;96602.56;1684792;85;21411;-77
2022/02/22 03:35:54;;;;;;;8.45;4.05;;;;;;;4.01;75.79;96600.38;1684801;85;21037;-77
2022/02/22 03:38:20;;;;;;;8.55;4.47;;;;;;;4.02;75.67;96611.30;1684598;85;21008;-77
2022/02/22 03:40:47;;;;;;;9.08;4.60;;;;;;;4.01;75.37;96613.48;1684768;85;20969;-77
2022/02/22 03:43:14;;;;;;;10.53;5.37;;;;;;;4.03;75.27;96617.80;1684961;85;21045;-77
2022/02/22 03:45:41;;;;;;;9.35;5.05;;;;;;;4.04;75.32;96609.05;1719565;83;21008;-78
2022/02/22 03:48:07;;;;;;;11.88;6.03;;;;;;;4.05;75.13;96620.38;1719572;83;21032;-78
2022/02/22 03:50:34;;;;;;;11.43;6.00;;;;;;;4.03;74.93;96615.17;1719515;83;21454;-78
2022/02/22 03:53:01;;;;;;;10.90;5.55;;;;;;;4.04;75.23;96614.30;1719712;83;21009;-78
2022/02/22 03:55:28;;;;;;;12.20;6.03;;;;;;;4.05;74.77;96608.58;1719587;83;21081;-77
2022/02/22 03:57:54;;;;;;;11.22;6.05;;;;;;;4.05;74.62;96608.58;1719172;82;21423;-77
2022/02/22 04:00:24;;;;;;;13.43;6.47;;;;;;;4.04;74.78;96611.67;1719619;83;20981;-78
2022/02/22 04:02:51;;;;;;;13.38;6.22;;;;;;;4.04;75.85;96612.11;1719465;82;20994;-78
2022/02/22 04:05:20;;;;;;;11.43;5.47;;;;;;;4.03;74.54;96609.08;1717314;82;20976;-78
2022/02/22 04:07:49;;;;;;;13.40;5.72;;;;;;;4.03;74.53;96615.17;1722051;82;21480;-78
2022/02/22 04:10:16;;;;;;;11.73;6.25;;;;;;;4.04;74.71;96614.73;1708980;84;21031;-78
2022/02/22 04:12:44;;;;;;;12.18;6.67;;;;;;;4.05;74.73;96617.76;1701272;84;21054;-78
2022/02/22 04:15:11;;;;;;;14.75;6.03;;;;;;;4.04;74.59;96622.59;1701637;84;21500;-77
2022/02/22 04:17:38;;;;;;;13.05;6.28;;;;;;;4.03;74.67;96629.59;1701728;84;21070;-77
2022/02/22 04:20:07;;;;;;;12.60;6.17;;;;;;;4.03;74.58;96628.75;1701656;84;21038;-78
2022/02/22 04:22:34;;;;;;;11.33;6.05;;;;;;;4.04;75.26;96633.95;1701649;83;21026;-77
2022/02/22 04:25:02;;;;;;;11.48;5.92;;;;;;;4.03;74.62;96633.99;1698518;82;21004;-78
2022/02/22 04:27:28;;;;;;;12.90;6.30;;;;;;;4.01;74.79;96639.70;1697042;84;21028;-78
2022/02/22 04:29:55;;;;;;;12.13;6.15;;;;;;;4.02;74.79;96654.56;1697376;84;21432;-78
2022/02/22 04:32:21;;;;;;;12.58;6.22;;;;;;;3.98;75.05;96641.11;1741536;82;21023;-78
2022/02/22 04:34:49;;;;;;;10.03;5.25;;;;;;;3.93;74.91;96652.56;1747461;82;21001;-78
2022/02/22 04:37:17;;;;;;;14.58;5.70;;;;;;;3.92;75.61;96655.22;1747089;82;20970;-78
2022/02/22 04:39:47;;;;;;;16.73;6.70;;;;;;;3.91;74.87;96656.13;1721748;82;20973;-78
2022/02/22 04:42:14;;;;;;;12.78;7.50;;;;;;;3.93;74.68;96658.25;1744060;82;21529;-78
2022/02/22 04:44:41;;;;;;;11.68;7.00;;;;;;;3.96;74.98;96662.12;1743936;82;21037;-78
2022/02/22 04:47:08;;;;;;;11.22;6.42;;;;;;;3.98;74.97;96664.23;1731970;82;21524;-77
2022/02/22 04:49:35;;;;;;;13.30;6.42;;;;;;;3.99;75.08;96663.36;1732130;83;21008;-77
2022/02/22 04:52:04;;;;;;;10.68;6.28;;;;;;;4.02;75.31;96663.27;1732009;82;20985;-78
2022/02/22 04:54:31;;;;;;;11.12;6.25;;;;;;;4.06;75.39;96659.67;1731998;82;21016;-78
2022/02/22 04:56:57;;;;;;;9.40;4.87;;;;;;;4.12;75.41;96656.48;1732208;83;20993;-78
2022/02/22 04:59:24;;;;;;;14.28;5.75;;;;;;;4.18;75.32;96658.50;1732145;83;21024;-78
2022/02/22 05:01:52;;;;;;;13.90;6.42;;;;;;;4.22;75.66;96664.52;1731925;82;20985;-77
2022/02/22 05:04:19;;;;;;;10.43;5.55;;;;;;;4.27;75.71;96667.05;1715642;83;21347;-77
2022/02/22 05:06:45;;;;;;;10.43;5.65;;;;;;;4.26;75.54;96660.92;1731911;83;21032;-77
2022/02/22 05:09:12;;;;;;;11.83;5.75;;;;;;;4.29;75.74;96662.61;1731900;83;21028;-77
2022/02/22 05:11:40;;;;;;;11.78;5.53;;;;;;;4.29;75.16;96659.55;1731684;82;21538;-78
2022/02/22 05:14:06;;;;;;;11.63;5.60;;;;;;;4.23;73.07;96669.73;1695828;84;21051;-78
2022/02/22 05:16:39;;;;;;;8.85;5.00;;;;;;;4.22;74.32;96661.46;1695595;83;21071;-78
2022/02/22 05:19:06;;;;;;;10.32;4.97;;;;;;;4.20;73.44;96675.05;1670122;85;21580;-78
2022/02/22 05:21:34;;;;;;;9.33;4.58;;;;;;;4.18;73.10;96673.36;1668890;86;21039;-78
2022/02/22 05:24:02;;;;;;;10.45;5.22;;;;;;;4.10;72.99;96682.73;1669300;86;21432;-77
2022/02/22 05:26:29;;;;;;;11.83;5.85;;;;;;;4.07;73.15;96690.70;1669264;86;21031;-78
2022/02/22 05:28:56;;;;;;;11.20;6.28;;;;;;;4.02;73.10;96691.27;1669321;86;21073;-78
2022/02/22 05:31:24;;;;;;;11.08;5.80;;;;;;;3.99;73.07;96696.13;1669443;86;21055;-78
2022/02/22 05:33:51;;;;;;;14.43;5.50;;;;;;;3.96;73.05;96694.88;1669190;86;21475;-78
2022/02/22 05:36:21;;;;;;;10.55;5.37;;;;;;;3.89;73.10;96704.65;1669321;86;20972;-77
2022/02/22 05:38:48;;;;;;;11.55;5.97;;;;;;;3.87;73.16;96717.38;1669360;86;21475;-77
2022/02/22 05:41:17;;;;;;;10.75;6.05;;;;;;;3.81;72.92;96716.63;1694989;83;21028;-77
2022/02/22 05:43:46;;;;;;;12.98;6.10;;;;;;;3.72;73.39;96708.09;1678815;85;21313;-76
2022/02/22 05:46:14;;;;;;;11.43;5.87;;;;;;;3.68;73.63;96711.25;1681978;85;21021;-76
2022/02/22 05:48:41;;;;;;;12.03;5.75;;;;;;;3.66;73.20;96713.05;1712049;84;21012;-76
2022/02/22 05:51:09;;;;;;;11.40;5.97;;;;;;;3.62;73.05;96717.51;1712358;84;20969;-77
2022/02/22 05:53:37;;;;;;;12.20;6.35;;;;;;;3.59;73.54;96724.55;1712533;84;20999;-77
2022/02/22 05:56:04;;;;;;;13.78;6.90;;;;;;;3.52;73.09;96729.06;1712313;84;21004;-76
2022/02/22 05:58:31;;;;;;;12.23;6.12;;;;;;;3.46;73.19;96723.52;1706830;84;21020;-77
2022/02/22 06:00:58;;;;;;;15.35;7.12;;;;;;;3.45;72.80;96727.48;1680413;84;21008;-78
2022/02/22 06:03:28;;;;;;;11.25;5.60;;;;;;;3.39;72.31;96731.08;1668028;86;21480;-81
2022/02/22 06:05:58;;;;;;;19.07;8.95;;;;;;;3.32;71.94;96740.82;1669683;86;21047;-82
2022/02/22 06:08:27;;;;;;;24.18;11.30;;;;;;;3.28;71.96;96743.95;1669416;86;21109;-81
2022/02/22 06:10:53;;;;;;;10.88;5.28;;;;;;;3.25;72.03;96745.78;1669285;84;20965;-80
2022/02/22 06:13:20;;;;;;;10.08;5.15;;;;;;;3.20;70.96;96751.09;1707367;84;20989;-78
2022/02/22 06:15:47;;;;;;;9.95;4.53;;;;;;;3.20;70.87;96752.88;1713110;84;21503;-85
2022/02/22 06:18:17;;;;;;;9.30;4.62;;;;;;;3.19;70.29;96756.39;1682268;83;21008;-81
2022/02/22 06:20:44;;;;;;;9.50;4.37;;;;;;;3.17;70.44;96754.64;1677755;85;21452;-82
2022/02/22 06:23:12;;;;;;;9.60;4.83;;;;;;;3.17;70.49;96752.02;1677952;85;21454;-81
2022/02/22 06:25:41;;;;;;;10.30;4.95;;;;;;;3.17;70.62;96755.95;1677917;85;21021;-82
2022/02/22 06:28:12;;;;;;;10.28;5.03;;;;;;;3.17;70.56;96764.27;1684728;84;21045;-82
2022/02/22 06:30:39;;;;;;;9.25;4.55;;;;;;;3.18;70.75;96762.06;1685342;84;21541;-81
2022/02/22 06:33:08;;;;;;;8.08;4.28;;;;;;;3.21;70.64;96766.38;1660585;85;20982;-83
2022/02/22 06:35:36;;;;;;;9.23;5.00;;;;;;;3.22;70.66;96761.55;1731510;82;21048;-86
2022/02/22 06:38:03;;;;;;;8.83;4.90;;;;;;;3.22;70.49;96765.04;1692461;85;21067;-85
2022/02/22 06:40:31;;;;;;;11.00;4.75;;;;;;;3.23;70.43;96768.06;1727170;83;21024;-84
2022/02/22 06:42:58;;;;;;;8.95;4.40;;;;;;;3.24;70.39;96776.80;1727189;82;21033;-83
2022/02/22 06:45:25;;;;;;;8.53;4.03;;;;;;;3.25;70.10;96779.39;1725405;82;21064;-83
2022/02/22 06:47:51;;;;;;;17.17;6.90;;;;;;;3.27;70.16;96783.27;1724985;83;21044;-83
2022/02/22 06:50:18;;;;;;;18.55;8.40;;;;;;;3.29;69.66;96782.34;1726349;82;21076;-83
2022/02/22 06:52:44;;;;;;;9.93;4.70;;;;;;;3.33;70.02;96791.02;1727057;83;21436;-83
2022/02/22 06:55:14;;;;;;;12.80;5.35;;;;;;;3.37;70.14;96790.03;1727040;83;21060;-82
2022/02/22 06:57:41;;;;;;;10.90;5.30;;;;;;;3.41;70.21;96798.25;1727006;83;21029;-84
2022/02/22 07:00:11;;;;;;;12.63;5.42;;;;;;;3.45;70.27;96800.82;1726447;83;20993;-82
2022/02/22 07:02:39;;;;;;;9.43;5.20;;;;;;;3.47;70.55;96803.83;1725537;83;21006;-82
2022/02/22 07:05:11;;;;;;;9.70;4.95;;;;;;;3.54;70.26;96800.64;1726785;83;21026;-83
2022/02/22 07:07:38;;;;;;;10.20;5.08;;;;;;;3.58;69.84;96813.22;1726732;82;21009;-82
2022/02/22 07:10:07;;;;;;;10.30;4.45;;;;;;;3.65;69.81;96810.44;1723370;82;20988;-81
2022/02/22 07:12:33;;;;;;;7.45;4.28;;;;;;;3.76;69.18;96811.96;1722577;83;21978;-80
2022/02/22 07:15:07;;;;;;;9.28;4.22;;;;;;;3.87;68.38;96799.94;1723275;83;21017;-78
2022/02/22 07:17:52;;;;;;;8.03;4.45;;;;;;;3.99;68.27;96805.36;1720981;82;21048;-77
2022/02/22 07:20:37;;;;;;;8.50;3.95;;;;;;;4.09;66.58;96802.50;1722692;83;21088;-77
2022/02/22 07:23:06;;;;;;;9.00;4.08;;;;;;;4.25;66.67;96807.39;1723754;82;21045;-77
2022/02/22 07:25:34;;;;;;;6.70;3.30;;;;;;;4.35;67.21;96808.89;1724713;83;21013;-77
2022/02/22 07:28:02;;;;;;;5.72;2.70;;;;;;;4.45;66.94;96810.83;1724813;83;21024;-77
2022/02/22 07:30:30;;;;;;;6.33;2.80;;;;;;;4.55;66.43;96820.67;1724815;83;21017;-77
2022/02/22 07:33:02;;;;;;;4.97;2.67;;;;;;;4.66;66.00;96828.72;1686294;84;21683;-77
2022/02/22 07:35:30;;;;;;;4.65;3.05;;;;;;;4.71;64.36;96821.59;1717394;81;21042;-77
2022/02/22 07:37:57;;;;;;;5.12;2.55;;;;;;;4.78;62.60;96836.74;1694348;85;21026;-77
2022/02/22 07:40:24;;;;;;;5.97;2.98;;;;;;;4.85;63.16;96845.73;1694557;84;21007;-77
2022/02/22 07:42:51;;;;;;;5.60;3.08;;;;;;;4.93;63.30;96843.35;1694444;84;20953;-77
2022/02/22 07:45:18;;;;;;;6.10;2.47;;;;;;;4.96;61.54;96852.04;1709197;83;21033;-77
2022/02/22 07:47:44;;;;;;;5.90;2.58;;;;;;;5.04;62.29;96860.16;1725253;83;21010;-77
2022/02/22 07:50:11;;;;;;;7.67;4.15;;;;;;;5.07;61.49;96865.34;1724722;83;21020;-77
2022/02/22 07:52:39;;;;;;;5.65;3.33;;;;;;;5.05;60.85;96871.06;1724948;83;20949;-77
2022/02/22 07:55:07;;;;;;;5.45;2.55;;;;;;;5.02;60.93;96872.88;1724924;83;21025;-78
2022/02/22 07:57:33;;;;;;;8.48;3.20;;;;;;;4.98;60.73;96875.16;1724949;83;20989;-77
2022/02/22 08:00:00;;;;;;;4.80;2.58;;;;;;;4.96;61.64;96878.30;1725065;83;21033;-77
2022/02/22 08:02:27;;;;;;;6.67;2.98;;;;;;;4.94;60.80;96887.95;1725040;83;21020;-77
2022/02/22 08:04:53;;;;;;;4.58;2.60;;;;;;;4.95;60.86;96889.70;1724797;83;21017;-77
2022/02/22 08:07:24;;;;;;;4.75;2.65;;;;;;;4.96;61.90;96889.23;1725002;83;21455;-77
2022/02/22 08:09:48;;;;;;;4.15;2.45;;;;;;;4.98;60.62;96889.61;1724725;83;21466;-78
2022/02/22 08:12:16;;;;;;;5.20;2.98;;;;;;;4.99;60.81;96896.58;1727355;83;21068;-77
2022/02/22 08:14:42;;;;;;;6.65;2.83;;;;;;;5.04;60.60;96896.48;1727215;83;21075;-77
2022/02/22 08:17:09;;;;;;;4.37;2.70;;;;;;;5.08;60.91;96894.63;1727103;83;21422;-77
2022/02/22 08:19:35;;;;;;;6.08;2.80;;;;;;;5.13;61.01;96896.69;1727274;83;21037;-77
2022/02/22 08:22:03;;;;;;;4.60;1.70;;;;;;;5.19;60.22;96906.19;1727172;83;21493;-77
2022/02/22 08:24:29;;;;;;;3.37;1.92;;;;;;;5.27;58.11;96904.20;1726965;83;21434;-77
2022/02/22 08:26:59;;;;;;;4.53;2.10;;;;;;;5.36;57.87;96902.66;1727065;83;21018;-77
2022/02/22 08:29:26;;;;;;;7.17;1.67;;;;;;;5.48;58.36;96909.82;1727352;83;21032;-78
2022/02/22 08:31:53;;;;;;;5.55;1.77;;;;;;;5.59;54.97;96910.38;1727159;83;21106;-77
2022/02/22 08:34:20;;;;;;;4.45;1.42;;;;;;;5.69;56.29;96914.92;1727265;83;21065;-77
2022/02/22 08:36:47;;;;;;;4.05;1.70;;;;;;;5.77;55.24;96906.85;1727257;83;21047;-77
2022/02/22 08:39:14;;;;;;;5.35;2.37;;;;;;;5.86;55.60;96903.94;1727072;83;21012;-77
2022/02/22 08:41:42;;;;;;;2.58;1.47;;;;;;;5.94;53.24;96903.75;1726227;82;20982;-77
2022/02/22 08:44:10;;;;;;;4.17;1.65;;;;;;;6.00;54.30;96910.14;1733022;82;20978;-78
2022/02/22 08:46:37;;;;;;;3.95;1.35;;;;;;;6.05;53.41;96900.81;1727113;83;21044;-78
2022/02/22 08:49:04;;;;;;;4.30;1.22;;;;;;;6.09;52.42;96904.25;1726979;83;21029;-78
2022/02/22 08:51:31;;;;;;;4.83;1.90;;;;;;;6.13;52.87;96911.98;1727254;83;21281;-77
2022/02/22 08:53:57;;;;;;;5.95;1.90;;;;;;;6.17;53.31;96914.07;1727075;83;21431;-78
2022/02/22 08:56:24;;;;;;;4.05;1.50;;;;;;;6.22;52.49;96911.32;1726981;83;21021;-78
2022/02/22 08:58:52;;;;;;;2.70;1.42;;;;;;;6.24;52.05;96907.73;1727187;83;21037;-78
2022/02/22 09:01:19;;;;;;;2.75;1.42;;;;;;;6.28;52.00;96929.55;1727262;83;21048;-78
2022/02/22 09:03:45;;;;;;;7.45;1.40;;;;;;;6.30;49.46;96923.77;1727430;83;21414;-78
2022/02/22 09:06:12;;;;;;;3.25;1.40;;;;;;;6.26;49.98;96920.38;1726927;83;21106;-78
2022/02/22 09:08:38;;;;;;;3.95;1.15;;;;;;;6.25;50.62;96920.42;1727409;83;21028;-78
2022/02/22 09:11:05;;;;;;;8.75;1.57;;;;;;;6.28;49.95;96914.63;1727296;83;21098;-78
2022/02/22 09:13:32;;;;;;;2.67;1.40;;;;;;;6.34;49.18;96911.81;1727230;83;21051;-78
2022/02/22 09:15:59;;;;;;;2.85;1.35;;;;;;;6.43;49.28;96915.05;1727179;83;21049;-78
2022/02/22 09:18:25;;;;;;;4.50;1.82;;;;;;;6.45;49.83;96923.30;1727135;83;21023;-78
2022/02/22 09:20:52;;;;;;;4.85;1.50;;;;;;;6.46;49.31;96929.45;1727102;83;21036;-78
2022/02/22 09:23:19;;;;;;;4.78;1.50;;;;;;;6.44;50.98;96923.38;1727146;83;21091;-78
2022/02/22 09:25:45;;;;;;;6.62;1.50;;;;;;;6.49;51.35;96927.17;1727037;83;21029;-78
2022/02/22 09:28:12;;;;;;;4.35;1.70;;;;;;;6.58;50.45;96918.56;1726984;83;21020;-78
2022/02/22 09:30:39;;;;;;;4.00;1.70;;;;;;;6.65;49.96;96917.91;1727105;83;21085;-78
2022/02/22 09:33:08;;;;;;;3.85;1.80;;;;;;;6.68;49.64;96930.96;1727425;83;21008;-78
2022/02/22 09:35:35;;;;;;;4.85;1.70;;;;;;;6.60;49.95;96920.67;1708650;83;20981;-78
2022/02/22 09:38:02;;;;;;;4.25;1.95;;;;;;;6.63;49.94;96927.61;1727454;83;21067;-78
2022/02/22 09:40:29;;;;;;;4.75;1.85;;;;;;;6.71;50.27;96924.30;1727386;83;20953;-78
2022/02/22 09:42:56;;;;;;;4.97;2.42;;;;;;;6.76;49.41;96924.14;1727334;83;21024;-76
2022/02/22 09:45:25;;;;;;;3.75;1.80;;;;;;;6.76;48.81;96932.04;1736542;82;20997;-78
2022/02/22 09:47:57;;;;;;;6.22;2.40;;;;;;;6.79;48.67;96928.00;1744808;82;21036;-79
2022/02/22 09:50:24;;;;;;;4.80;2.10;;;;;;;6.81;47.61;96929.28;1744953;82;20969;-79
2022/02/22 09:52:51;;;;;;;4.58;1.77;;;;;;;6.88;48.46;96926.84;1732522;82;21020;-79
2022/02/22 09:55:18;;;;;;;3.77;1.70;;;;;;;6.96;47.70;96928.78;1729585;82;20990;-75
2022/02/22 09:57:45;;;;;;;4.17;2.00;;;;;;;7.01;47.73;96925.98;1697050;84;21455;-76
2022/02/22 10:00:19;;;;;;;5.47;1.50;;;;;;;7.00;46.59;96922.51;1696878;84;21029;-78
2022/02/22 10:02:48;;;;;;;3.52;1.60;;;;;;;7.05;47.68;96918.87;1662120;86;21072;-77
2022/02/22 10:05:18;;;;;;;7.20;2.30;;;;;;;7.19;46.72;96915.77;1696872;85;21078;-77
2022/02/22 10:07:58;;;;;;;5.60;1.82;;;;;;;7.33;47.49;96924.52;1697281;85;21019;-76
2022/02/22 10:10:40;;;;;;;3.00;1.47;;;;;;;7.55;46.56;96939.61;1696716;84;21042;-76
2022/02/22 10:13:12;;;;;;;3.67;1.30;;;;;;;7.70;47.53;96929.84;1696802;85;21062;-75
2022/02/22 10:15:41;;;;;;;4.90;2.20;;;;;;;7.82;46.52;96929.87;1695926;84;21048;-76
2022/02/22 10:18:09;;;;;;;2.70;1.37;;;;;;;8.01;47.10;96932.70;1696788;85;21074;-76
2022/02/22 10:20:38;;;;;;;3.92;1.75;;;;;;;8.17;47.32;96934.77;1696878;85;21045;-76
2022/02/22 10:23:06;;;;;;;18.98;9.63;;;;;;;8.31;46.71;96935.59;1696634;85;21066;-76
2022/02/22 10:25:35;;;;;;;14.98;7.50;;;;;;;8.31;44.68;96953.59;1696879;85;21464;-76
2022/02/22 10:28:04;;;;;;;4.50;2.00;;;;;;;8.28;45.81;96944.48;1696819;85;21065;-76
2022/02/22 10:30:48;;;;;;;3.65;1.75;;;;;;;8.24;44.10;96945.96;1696777;85;21079;-77
2022/02/22 10:33:28;;;;;;;3.90;2.00;;;;;;;8.20;44.43;96945.22;1696831;84;21023;-76
2022/02/22 10:36:18;;;;;;;3.95;1.80;;;;;;;8.22;44.21;96943.85;1696915;84;21492;-77
2022/02/22 10:38:46;;;;;;;4.45;1.60;;;;;;;8.22;43.33;96950.45;1804487;79;21019;-77
2022/02/22 10:41:15;;;;;;;3.70;1.82;;;;;;;8.03;43.19;96949.80;1805674;79;21047;-77
2022/02/22 10:43:53;;;;;;;4.40;1.80;;;;;;;8.14;45.18;96950.25;1805681;79;21070;-77
2022/02/22 10:46:31;;;;;;;3.95;1.92;;;;;;;8.17;43.70;96951.92;1805388;79;20987;-77
2022/02/22 10:49:14;;;;;;;3.55;1.85;;;;;;;8.27;43.77;96942.73;1805682;79;21051;-77
2022/02/22 10:51:45;;;;;;;4.22;1.80;;;;;;;8.42;44.36;96951.00;1805665;79;20980;-78
2022/02/22 10:54:22;;;;;;;4.25;1.80;;;;;;;8.91;44.26;96947.41;1805694;79;20983;-77
2022/02/22 10:56:50;;;;;;;4.97;1.92;;;;;;;9.69;42.06;96940.28;1805686;79;21385;-77
2022/02/22 10:59:23;;;;;;;5.70;2.10;;;;;;;10.76;39.15;96936.00;1804242;79;21486;-77
2022/02/22 11:01:50;;;;;;;3.85;1.90;;;;;;;11.71;37.93;96937.53;1795568;80;21370;-77
2022/02/22 11:04:18;;;;;;;6.05;2.08;;;;;;;13.00;40.67;96918.35;1797740;80;21509;-76
2022/02/22 11:06:44;;;;;;;3.58;2.08;;;;;;;14.22;39.20;96926.31;1797928;80;21035;-77
2022/02/22 11:09:17;;;;;;;2.87;1.57;;;;;;;14.78;31.45;96932.66;1797892;80;20983;-77
2022/02/22 11:11:50;;;;;;;3.60;1.70;;;;;;;15.30;32.32;96910.23;1797941;80;21008;-77
2022/02/22 11:14:33;;;;;;;3.22;1.77;;;;;;;16.04;33.31;96908.42;1769110;80;21008;-77
2022/02/22 11:17:16;;;;;;;3.47;1.40;;;;;;;17.08;35.38;96926.13;1797590;80;21047;-77
2022/02/22 11:19:48;;;;;;;2.85;1.50;;;;;;;17.40;28.04;96903.66;1797784;80;20992;-77
2022/02/22 11:22:23;;;;;;;2.98;1.50;;;;;;;18.41;30.07;96913.92;1763924;80;20965;-77
2022/02/22 11:24:58;;;;;;;2.52;1.47;;;;;;;19.09;29.89;96916.17;1797331;80;21008;-78
2022/02/22 11:27:38;;;;;;;6.35;4.10;;;;;;;18.74;27.91;96922.91;1797794;80;20992;-78
2022/02/22 11:30:13;;;;;;;2.05;1.17;;;;;;;19.71;27.69;96917.80;1797788;80;20960;-78
2022/02/22 11:32:59;;;;;;;1.90;1.22;;;;;;;19.10;24.58;96918.74;1797748;80;20945;-77
2022/02/22 11:35:28;;;;;;;2.37;1.25;;;;;;;19.32;23.94;96927.73;1797736;80;20988;-77
2022/02/22 11:38:07;;;;;;;2.92;1.65;;;;;;;18.99;24.26;96912.86;1797676;79;21421;-78
2022/02/22 11:40:35;;;;;;;3.47;1.72;;;;;;;19.34;24.05;96921.73;1797672;80;21047;-78
2022/02/22 11:43:15;;;;;;;4.45;1.47;;;;;;;19.02;25.58;96931.93;1797817;80;21003;-78
2022/02/22 11:45:45;;;;;;;2.35;1.40;;;;;;;19.21;25.00;96927.75;1782324;80;21024;-78